sensor_id;sensor_type;location;lat;lon;timestamp;pressure;altitude;pressure_sealevel;temperature;humidity
56082;BME280;41957;52.060;5.138;2022-12-08T00:01:23;101171.06;;;15.80;53.69
56082;BME280;41957;52.060;5.138;2022-12-08T00:03:48;101169.47;;;15.74;53.74
56082;BME280;41957;52.060;5.138;2022-12-08T00:09:33;101150.91;;;15.74;53.47
56082;BME280;41957;52.060;5.138;2022-12-08T00:12:00;101145.84;;;15.68;53.77
56082;BME280;41957;52.060;5.138;2022-12-08T00:14:28;101144.16;;;15.64;53.94
56082;BME280;41957;52.060;5.138;2022-12-08T00:16:54;101136.16;;;15.66;53.54
56082;BME280;41957;52.060;5.138;2022-12-08T00:19:20;101137.22;;;15.60;53.64
56082;BME280;41957;52.060;5.138;2022-12-08T00:21:45;101148.84;;;15.56;53.97
56082;BME280;41957;52.060;5.138;2022-12-08T00:24:11;101141.81;;;15.55;53.80
56082;BME280;41957;52.060;5.138;2022-12-08T00:26:36;101137.44;;;15.54;53.81
56082;BME280;41957;52.060;5.138;2022-12-08T00:29:02;101127.66;;;15.56;54.11
56082;BME280;41957;52.060;5.138;2022-12-08T00:31:28;101111.75;;;15.56;53.74
56082;BME280;41957;52.060;5.138;2022-12-08T00:33:53;101101.16;;;15.56;53.85
56082;BME280;41957;52.060;5.138;2022-12-08T00:36:18;101110.94;;;15.54;53.82
56082;BME280;41957;52.060;5.138;2022-12-08T00:38:44;101097.75;;;15.52;54.05
56082;BME280;41957;52.060;5.138;2022-12-08T00:41:13;101104.97;;;15.47;53.85
56082;BME280;41957;52.060;5.138;2022-12-08T00:43:39;101098.00;;;15.45;53.90
56082;BME280;41957;52.060;5.138;2022-12-08T00:46:04;101087.50;;;15.42;54.36
56082;BME280;41957;52.060;5.138;2022-12-08T00:48:29;101089.22;;;15.43;54.22
56082;BME280;41957;52.060;5.138;2022-12-08T00:50:55;101093.66;;;15.42;54.21
56082;BME280;41957;52.060;5.138;2022-12-08T00:53:20;101083.13;;;15.41;54.19
56082;BME280;41957;52.060;5.138;2022-12-08T00:55:45;101082.50;;;15.32;54.13
56082;BME280;41957;52.060;5.138;2022-12-08T00:58:11;101070.19;;;15.31;54.25
56082;BME280;41957;52.060;5.138;2022-12-08T01:00:39;101071.06;;;15.32;54.12
56082;BME280;41957;52.060;5.138;2022-12-08T01:03:04;101067.75;;;15.25;54.41
56082;BME280;41957;52.060;5.138;2022-12-08T01:05:29;101066.00;;;15.24;54.31
56082;BME280;41957;52.060;5.138;2022-12-08T01:07:55;101065.97;;;15.26;54.20
56082;BME280;41957;52.060;5.138;2022-12-08T01:10:20;101063.44;;;15.21;54.45
56082;BME280;41957;52.060;5.138;2022-12-08T01:12:45;101060.09;;;15.16;54.53
56082;BME280;41957;52.060;5.138;2022-12-08T01:15:11;101060.09;;;15.16;54.44
56082;BME280;41957;52.060;5.138;2022-12-08T01:17:36;101070.63;;;15.18;54.52
56082;BME280;41957;52.060;5.138;2022-12-08T01:20:03;101068.09;;;15.14;54.31
56082;BME280;41957;52.060;5.138;2022-12-08T01:22:28;101066.34;;;15.13;54.55
56082;BME280;41957;52.060;5.138;2022-12-08T01:24:54;101070.94;;;15.08;54.29
56082;BME280;41957;52.060;5.138;2022-12-08T01:27:19;101064.88;;;15.05;54.35
56082;BME280;41957;52.060;5.138;2022-12-08T01:29:44;101068.38;;;15.05;54.31
56082;BME280;41957;52.060;5.138;2022-12-08T01:32:10;101065.84;;;15.02;54.42
56082;BME280;41957;52.060;5.138;2022-12-08T01:34:35;101059.72;;;15.00;54.71
56082;BME280;41957;52.060;5.138;2022-12-08T01:37:00;101059.72;;;15.00;54.66
56082;BME280;41957;52.060;5.138;2022-12-08T01:39:25;101067.63;;;15.02;54.59
56082;BME280;41957;52.060;5.138;2022-12-08T01:41:51;101058.94;;;14.97;54.61
56082;BME280;41957;52.060;5.138;2022-12-08T01:46:43;101066.88;;;14.97;54.43
56082;BME280;41957;52.060;5.138;2022-12-08T01:49:20;101064.22;;;14.98;54.46
56082;BME280;41957;52.060;5.138;2022-12-08T01:54:15;101068.75;;;14.95;54.70
56082;BME280;41957;52.060;5.138;2022-12-08T01:56:53;101061.66;;;14.95;54.59
56082;BME280;41957;52.060;5.138;2022-12-08T01:59:21;101058.16;;;14.95;54.79
56082;BME280;41957;52.060;5.138;2022-12-08T02:01:48;101058.94;;;14.97;54.42
56082;BME280;41957;52.060;5.138;2022-12-08T02:04:13;101059.78;;;14.99;54.50
56082;BME280;41957;52.060;5.138;2022-12-08T02:06:40;101045.81;;;14.94;54.43
56082;BME280;41957;52.060;5.138;2022-12-08T02:09:07;101039.72;;;14.91;54.81
56082;BME280;41957;52.060;5.138;2022-12-08T02:11:33;101034.63;;;14.85;54.61
56082;BME280;41957;52.060;5.138;2022-12-08T02:13:59;101037.16;;;14.88;54.86
56082;BME280;41957;52.060;5.138;2022-12-08T02:16:47;101034.53;;;14.88;54.74
56082;BME280;41957;52.060;5.138;2022-12-08T02:27:42;101025.84;;;14.83;54.65
56082;BME280;41957;52.060;5.138;2022-12-08T02:39:40;101025.13;;;14.78;54.78
56082;BME280;41957;52.060;5.138;2022-12-08T02:41:44;101026.09;;;14.76;54.78
56082;BME280;41957;52.060;5.138;2022-12-08T02:44:34;101033.94;;;14.79;54.76
56082;BME280;41957;52.060;5.138;2022-12-08T02:47:12;101027.78;;;14.78;54.91
56082;BME280;41957;52.060;5.138;2022-12-08T02:49:39;101010.22;;;14.76;54.92
56082;BME280;41957;52.060;5.138;2022-12-08T02:55:00;101004.91;;;14.76;54.67
56082;BME280;41957;52.060;5.138;2022-12-08T03:00:17;100986.34;;;14.77;54.78
56082;BME280;41957;52.060;5.138;2022-12-08T03:08:39;100970.78;;;14.68;55.04
56082;BME280;41957;52.060;5.138;2022-12-08T03:11:16;100977.88;;;14.66;54.98
56082;BME280;41957;52.060;5.138;2022-12-08T03:13:48;100970.88;;;14.65;54.91
56082;BME280;41957;52.060;5.138;2022-12-08T03:16:18;100979.75;;;14.64;54.95
56082;BME280;41957;52.060;5.138;2022-12-08T03:18:50;100969.16;;;14.64;55.09
56082;BME280;41957;52.060;5.138;2022-12-08T03:21:19;100984.19;;;14.62;54.97
56082;BME280;41957;52.060;5.138;2022-12-08T03:23:49;100994.78;;;14.62;55.07
56082;BME280;41957;52.060;5.138;2022-12-08T03:26:19;100987.88;;;14.58;54.85
56082;BME280;41957;52.060;5.138;2022-12-08T03:28:48;100980.78;;;14.58;55.02
56082;BME280;41957;52.060;5.138;2022-12-08T03:31:14;100981.66;;;14.59;54.90
56082;BME280;41957;52.060;5.138;2022-12-08T03:33:43;100972.78;;;14.60;54.83
56082;BME280;41957;52.060;5.138;2022-12-08T03:36:12;100956.13;;;14.58;54.94
56082;BME280;41957;52.060;5.138;2022-12-08T03:38:43;100947.34;;;14.56;55.19
56082;BME280;41957;52.060;5.138;2022-12-08T03:41:09;100950.94;;;14.55;54.92
56082;BME280;41957;52.060;5.138;2022-12-08T03:43:45;100957.19;;;14.52;54.87
56082;BME280;41957;52.060;5.138;2022-12-08T03:46:11;100967.75;;;14.51;55.03
56082;BME280;41957;52.060;5.138;2022-12-08T03:48:37;100964.31;;;14.49;55.20
56082;BME280;41957;52.060;5.138;2022-12-08T03:51:02;100969.53;;;14.50;55.36
56082;BME280;41957;52.060;5.138;2022-12-08T03:53:27;100960.78;;;14.48;55.01
56082;BME280;41957;52.060;5.138;2022-12-08T03:55:53;100949.41;;;14.46;54.87
56082;BME280;41957;52.060;5.138;2022-12-08T03:58:18;100950.19;;;14.48;54.95
56082;BME280;41957;52.060;5.138;2022-12-08T04:00:44;100944.00;;;14.49;54.98
56082;BME280;41957;52.060;5.138;2022-12-08T04:03:09;100941.41;;;14.48;54.94
56082;BME280;41957;52.060;5.138;2022-12-08T04:05:34;100942.34;;;14.45;54.96
56082;BME280;41957;52.060;5.138;2022-12-08T04:08:00;100929.22;;;14.42;55.07
56082;BME280;41957;52.060;5.138;2022-12-08T04:10:25;100925.63;;;14.44;55.35
56082;BME280;41957;52.060;5.138;2022-12-08T04:12:50;100930.13;;;14.42;55.14
56082;BME280;41957;52.060;5.138;2022-12-08T04:15:16;100925.72;;;14.41;55.18
56082;BME280;41957;52.060;5.138;2022-12-08T04:17:41;100919.59;;;14.41;55.08
56082;BME280;41957;52.060;5.138;2022-12-08T04:20:07;100915.16;;;14.41;55.33
56082;BME280;41957;52.060;5.138;2022-12-08T04:22:32;100928.34;;;14.43;55.25
56082;BME280;41957;52.060;5.138;2022-12-08T04:24:57;100940.63;;;14.44;55.16
56082;BME280;41957;52.060;5.138;2022-12-08T04:27:23;100925.69;;;14.43;55.02
56082;BME280;41957;52.060;5.138;2022-12-08T04:29:48;100924.00;;;14.40;55.31
56082;BME280;41957;52.060;5.138;2022-12-08T04:32:13;100919.66;;;14.39;55.25
56082;BME280;41957;52.060;5.138;2022-12-08T04:34:39;100918.81;;;14.37;55.22
56082;BME280;41957;52.060;5.138;2022-12-08T04:37:04;100920.59;;;14.37;55.14
56082;BME280;41957;52.060;5.138;2022-12-08T04:39:29;100916.28;;;14.34;55.05
56082;BME280;41957;52.060;5.138;2022-12-08T04:41:55;100910.06;;;14.35;55.32
56082;BME280;41957;52.060;5.138;2022-12-08T04:44:20;100902.31;;;14.29;55.20
56082;BME280;41957;52.060;5.138;2022-12-08T04:46:45;100903.28;;;14.27;55.20
56082;BME280;41957;52.060;5.138;2022-12-08T04:49:11;100907.59;;;14.29;55.14
56082;BME280;41957;52.060;5.138;2022-12-08T04:51:36;100908.53;;;14.28;55.06
56082;BME280;41957;52.060;5.138;2022-12-08T04:54:01;100909.38;;;14.29;55.14
56082;BME280;41957;52.060;5.138;2022-12-08T04:56:27;100911.22;;;14.27;54.98
56082;BME280;41957;52.060;5.138;2022-12-08T04:58:52;100920.06;;;14.26;55.17
56082;BME280;41957;52.060;5.138;2022-12-08T05:01:17;100911.28;;;14.25;55.01
56082;BME280;41957;52.060;5.138;2022-12-08T05:03:43;100897.19;;;14.25;55.07
56082;BME280;41957;52.060;5.138;2022-12-08T05:06:11;100898.16;;;14.22;55.07
56082;BME280;41957;52.060;5.138;2022-12-08T05:08:37;100895.44;;;14.23;55.10
56082;BME280;41957;52.060;5.138;2022-12-08T05:11:04;100901.69;;;14.21;54.95
56082;BME280;41957;52.060;5.138;2022-12-08T05:13:30;100905.22;;;14.21;55.15
56082;BME280;41957;52.060;5.138;2022-12-08T05:16:15;100901.78;;;14.18;55.19
56082;BME280;41957;52.060;5.138;2022-12-08T05:18:41;100909.69;;;14.19;54.99
56082;BME280;41957;52.060;5.138;2022-12-08T05:21:07;100906.13;;;14.20;55.00
56082;BME280;41957;52.060;5.138;2022-12-08T05:23:33;100910.53;;;14.20;55.00
56082;BME280;41957;52.060;5.138;2022-12-08T05:25:59;100910.63;;;14.17;55.04
56082;BME280;41957;52.060;5.138;2022-12-08T05:28:25;100915.88;;;14.18;54.97
56082;BME280;41957;52.060;5.138;2022-12-08T05:30:51;100913.28;;;14.17;55.15
56082;BME280;41957;52.060;5.138;2022-12-08T05:33:16;100913.38;;;14.14;55.19
56082;BME280;41957;52.060;5.138;2022-12-08T05:35:42;100904.59;;;14.13;55.20
56082;BME280;41957;52.060;5.138;2022-12-08T05:38:07;100905.44;;;14.14;55.08
56082;BME280;41957;52.060;5.138;2022-12-08T05:40:33;100898.47;;;14.11;55.07
56082;BME280;41957;52.060;5.138;2022-12-08T05:42:58;100900.25;;;14.11;55.09
56082;BME280;41957;52.060;5.138;2022-12-08T05:45:24;100894.88;;;14.14;55.05
56082;BME280;41957;52.060;5.138;2022-12-08T05:47:52;100907.25;;;14.12;55.12
56082;BME280;41957;52.060;5.138;2022-12-08T05:50:17;100904.69;;;14.10;55.13
56082;BME280;41957;52.060;5.138;2022-12-08T05:52:42;100901.09;;;14.11;55.00
56082;BME280;41957;52.060;5.138;2022-12-08T05:55:08;100897.59;;;14.11;55.08
56082;BME280;41957;52.060;5.138;2022-12-08T05:57:33;100904.69;;;14.10;54.87
56082;BME280;41957;52.060;5.138;2022-12-08T05:59:59;100903.81;;;14.10;55.40
56082;BME280;41957;52.060;5.138;2022-12-08T06:02:25;100908.25;;;14.09;55.00
56082;BME280;41957;52.060;5.138;2022-12-08T06:04:50;100907.34;;;14.09;55.08
56082;BME280;41957;52.060;5.138;2022-12-08T06:07:16;100897.69;;;14.08;54.96
56082;BME280;41957;52.060;5.138;2022-12-08T06:09:42;100896.00;;;14.05;54.92
56082;BME280;41957;52.060;5.138;2022-12-08T06:12:07;100901.28;;;14.07;55.08
56082;BME280;41957;52.060;5.138;2022-12-08T06:14:37;100895.16;;;14.05;54.97
56082;BME280;41957;52.060;5.138;2022-12-08T06:17:02;100903.16;;;14.03;55.14
56082;BME280;41957;52.060;5.138;2022-12-08T06:19:27;100909.31;;;14.02;55.10
56082;BME280;41957;52.060;5.138;2022-12-08T06:21:53;100915.53;;;14.01;55.13
56082;BME280;41957;52.060;5.138;2022-12-08T06:24:18;100916.38;;;14.02;54.86
56082;BME280;41957;52.060;5.138;2022-12-08T06:26:43;100914.75;;;13.97;55.06
56082;BME280;41957;52.060;5.138;2022-12-08T06:29:10;100920.91;;;13.98;55.03
56082;BME280;41957;52.060;5.138;2022-12-08T06:31:35;100912.13;;;13.97;55.05
56082;BME280;41957;52.060;5.138;2022-12-08T06:34:00;100913.84;;;13.98;55.20
56082;BME280;41957;52.060;5.138;2022-12-08T06:36:26;100911.28;;;13.95;55.17
56082;BME280;41957;52.060;5.138;2022-12-08T06:38:52;100907.72;;;13.96;55.25
56082;BME280;41957;52.060;5.138;2022-12-08T06:41:18;100914.88;;;13.93;55.38
56082;BME280;41957;52.060;5.138;2022-12-08T06:43:43;100912.31;;;13.91;55.82
56082;BME280;41957;52.060;5.138;2022-12-08T06:46:14;100914.69;;;13.99;56.09
56082;BME280;41957;52.060;5.138;2022-12-08T06:48:40;100913.44;;;14.12;56.31
56082;BME280;41957;52.060;5.138;2022-12-08T06:51:11;100904.19;;;14.26;56.13
56082;BME280;41957;52.060;5.138;2022-12-08T06:53:37;100904.97;;;14.29;56.86
56082;BME280;41957;52.060;5.138;2022-12-08T06:56:03;100895.88;;;14.38;57.54
56082;BME280;41957;52.060;5.138;2022-12-08T06:58:28;100897.66;;;14.37;57.86
56082;BME280;41957;52.060;5.138;2022-12-08T07:00:54;100906.50;;;14.36;58.34
56082;BME280;41957;52.060;5.138;2022-12-08T07:03:19;100897.66;;;14.37;58.55
56082;BME280;41957;52.060;5.138;2022-12-08T07:05:45;100888.69;;;14.41;58.57
56082;BME280;41957;52.060;5.138;2022-12-08T07:08:10;100878.22;;;14.38;58.60
56082;BME280;41957;52.060;5.138;2022-12-08T07:10:37;100882.44;;;14.44;58.55
56082;BME280;41957;52.060;5.138;2022-12-08T07:13:03;100884.97;;;14.49;58.28
56082;BME280;41957;52.060;5.138;2022-12-08T07:15:28;100888.41;;;14.51;58.16
56082;BME280;41957;52.060;5.138;2022-12-08T07:17:54;100890.34;;;14.45;57.67
56082;BME280;41957;52.060;5.138;2022-12-08T07:20:19;100889.63;;;14.40;57.80
56082;BME280;41957;52.060;5.138;2022-12-08T07:22:51;100902.00;;;14.40;57.85
56082;BME280;41957;52.060;5.138;2022-12-08T07:25:17;100883.72;;;14.32;57.39
56082;BME280;41957;52.060;5.138;2022-12-08T07:27:43;100894.47;;;14.26;57.76
56082;BME280;41957;52.060;5.138;2022-12-08T07:30:09;100894.56;;;14.23;57.83
56082;BME280;41957;52.060;5.138;2022-12-08T07:32:36;100892.03;;;14.20;57.76
56082;BME280;41957;52.060;5.138;2022-12-08T07:35:01;100885.06;;;14.17;57.58
56082;BME280;41957;52.060;5.138;2022-12-08T07:37:26;100894.75;;;14.18;57.51
56082;BME280;41957;52.060;5.138;2022-12-08T07:39:52;100891.41;;;14.12;57.54
56082;BME280;41957;52.060;5.138;2022-12-08T07:42:17;100891.47;;;14.10;57.61
56082;BME280;41957;52.060;5.138;2022-12-08T07:44:42;100887.41;;;13.98;57.67
56082;BME280;41957;52.060;5.138;2022-12-08T07:47:07;100893.75;;;13.93;57.65
56082;BME280;41957;52.060;5.138;2022-12-08T07:49:33;100889.31;;;13.93;57.54
56082;BME280;41957;52.060;5.138;2022-12-08T07:51:58;100890.34;;;13.89;57.35
56082;BME280;41957;52.060;5.138;2022-12-08T07:54:23;100889.50;;;13.87;57.30
56082;BME280;41957;52.060;5.138;2022-12-08T07:56:49;100887.88;;;13.83;57.30
56082;BME280;41957;52.060;5.138;2022-12-08T07:59:14;100887.84;;;13.85;57.06
56082;BME280;41957;52.060;5.138;2022-12-08T08:01:39;100893.22;;;13.82;57.02
56082;BME280;41957;52.060;5.138;2022-12-08T08:04:05;100888.06;;;13.77;56.81
56082;BME280;41957;52.060;5.138;2022-12-08T08:06:32;100882.75;;;13.79;57.13
56082;BME280;41957;52.060;5.138;2022-12-08T08:08:58;100883.44;;;14.13;55.92
56082;BME280;41957;52.060;5.138;2022-12-08T08:11:23;100882.09;;;14.56;54.92
56082;BME280;41957;52.060;5.138;2022-12-08T08:13:49;100884.44;;;14.90;53.66
56082;BME280;41957;52.060;5.138;2022-12-08T08:16:15;100879.59;;;15.52;52.73
56082;BME280;41957;52.060;5.138;2022-12-08T08:18:40;100886.16;;;16.12;51.29
56082;BME280;41957;52.060;5.138;2022-12-08T08:21:06;100881.84;;;16.76;49.62
56082;BME280;41957;52.060;5.138;2022-12-08T08:23:32;100885.47;;;17.34;48.18
56082;BME280;41957;52.060;5.138;2022-12-08T08:25:59;100875.38;;;17.82;46.92
56082;BME280;41957;52.060;5.138;2022-12-08T08:28:25;100877.78;;;18.24;45.83
56082;BME280;41957;52.060;5.138;2022-12-08T08:30:50;100873.44;;;18.58;45.60
56082;BME280;41957;52.060;5.138;2022-12-08T08:33:16;100886.75;;;18.58;45.42
56082;BME280;41957;52.060;5.138;2022-12-08T08:35:41;100906.81;;;18.48;45.51
56082;BME280;41957;52.060;5.138;2022-12-08T08:38:07;100908.16;;;18.38;45.81
56082;BME280;41957;52.060;5.138;2022-12-08T08:40:32;100903.53;;;18.24;46.31
56082;BME280;41957;52.060;5.138;2022-12-08T08:43:03;100903.81;;;18.18;46.28
56082;BME280;41957;52.060;5.138;2022-12-08T08:45:29;100903.56;;;18.05;46.70
56082;BME280;41957;52.060;5.138;2022-12-08T08:47:55;100900.53;;;17.94;46.59
56082;BME280;41957;52.060;5.138;2022-12-08T08:50:21;100905.69;;;17.78;47.25
56082;BME280;41957;52.060;5.138;2022-12-08T08:52:46;100911.56;;;17.65;47.34
56082;BME280;41957;52.060;5.138;2022-12-08T08:55:11;100905.19;;;17.49;47.93
56082;BME280;41957;52.060;5.138;2022-12-08T08:57:37;100908.47;;;17.35;47.80
56082;BME280;41957;52.060;5.138;2022-12-08T09:00:06;100913.47;;;17.23;48.74
56082;BME280;41957;52.060;5.138;2022-12-08T09:02:34;100908.63;;;17.12;48.66
56082;BME280;41957;52.060;5.138;2022-12-08T09:04:59;100905.63;;;16.99;48.76
56082;BME280;41957;52.060;5.138;2022-12-08T09:07:25;100900.16;;;16.82;49.28
56082;BME280;41957;52.060;5.138;2022-12-08T09:09:50;100903.44;;;16.66;49.60
56082;BME280;41957;52.060;5.138;2022-12-08T09:12:15;100900.53;;;16.50;49.77
56082;BME280;41957;52.060;5.138;2022-12-08T09:14:41;100898.56;;;16.34;50.03
56082;BME280;41957;52.060;5.138;2022-12-08T09:17:06;100900.00;;;16.20;50.18
56082;BME280;41957;52.060;5.138;2022-12-08T09:19:33;100901.47;;;16.05;50.71
56082;BME280;41957;52.060;5.138;2022-12-08T09:21:58;100902.91;;;15.91;50.82
56082;BME280;41957;52.060;5.138;2022-12-08T09:24:24;100908.56;;;15.81;51.31
56082;BME280;41957;52.060;5.138;2022-12-08T09:26:49;100911.56;;;15.72;51.16
56082;BME280;41957;52.060;5.138;2022-12-08T09:29:14;100909.97;;;15.67;51.30
56082;BME280;41957;52.060;5.138;2022-12-08T09:31:41;100912.91;;;15.59;51.15
56082;BME280;41957;52.060;5.138;2022-12-08T09:34:07;100908.69;;;15.53;51.83
56082;BME280;41957;52.060;5.138;2022-12-08T09:36:34;100912.31;;;15.51;51.58
56082;BME280;41957;52.060;5.138;2022-12-08T09:38:59;100912.53;;;15.45;51.54
56082;BME280;41957;52.060;5.138;2022-12-08T09:41:33;100916.28;;;15.39;51.93
56082;BME280;41957;52.060;5.138;2022-12-08T09:47:13;100909.47;;;15.32;52.20
56082;BME280;41957;52.060;5.138;2022-12-08T09:49:45;100916.78;;;15.25;52.24
56082;BME280;41957;52.060;5.138;2022-12-08T09:52:18;100921.16;;;15.26;52.27
56082;BME280;41957;52.060;5.138;2022-12-08T09:54:45;100912.50;;;15.21;52.36
56082;BME280;41957;52.060;5.138;2022-12-08T09:57:16;100915.31;;;15.17;52.60
56082;BME280;41957;52.060;5.138;2022-12-08T09:59:48;100911.06;;;15.12;52.49
56082;BME280;41957;52.060;5.138;2022-12-08T10:02:23;100911.16;;;15.09;52.25
56082;BME280;41957;52.060;5.138;2022-12-08T10:04:49;100913.00;;;15.07;52.65
56082;BME280;41957;52.060;5.138;2022-12-08T10:07:44;100907.75;;;15.06;52.45
56082;BME280;41957;52.060;5.138;2022-12-08T10:13:43;100907.94;;;15.00;52.67
56082;BME280;41957;52.060;5.138;2022-12-08T10:16:31;100907.09;;;14.99;52.57
56082;BME280;41957;52.060;5.138;2022-12-08T10:19:10;100908.06;;;14.97;52.39
56082;BME280;41957;52.060;5.138;2022-12-08T10:21:38;100909.03;;;14.94;52.59
56082;BME280;41957;52.060;5.138;2022-12-08T10:24:11;100908.22;;;14.92;52.53
56082;BME280;41957;52.060;5.138;2022-12-08T10:26:39;100901.25;;;14.89;52.61
56082;BME280;41957;52.060;5.138;2022-12-08T10:29:04;100904.00;;;14.86;52.69
56082;BME280;41957;52.060;5.138;2022-12-08T10:31:31;100905.81;;;14.84;52.55
56082;BME280;41957;52.060;5.138;2022-12-08T10:33:59;100908.47;;;14.84;52.45
56082;BME280;41957;52.060;5.138;2022-12-08T10:36:56;100898.84;;;14.82;52.58
56082;BME280;41957;52.060;5.138;2022-12-08T10:39:29;100892.69;;;14.81;52.67
56082;BME280;41957;52.060;5.138;2022-12-08T10:42:19;100897.88;;;14.84;52.58
56082;BME280;41957;52.060;5.138;2022-12-08T10:44:59;100894.38;;;14.84;52.60
56082;BME280;41957;52.060;5.138;2022-12-08T10:47:27;100896.16;;;14.83;52.57
56082;BME280;41957;52.060;5.138;2022-12-08T10:52:43;100893.63;;;14.80;52.44
56082;BME280;41957;52.060;5.138;2022-12-08T10:55:17;100889.16;;;14.82;52.64
56082;BME280;41957;52.060;5.138;2022-12-08T10:57:43;100890.88;;;14.83;52.47
56082;BME280;41957;52.060;5.138;2022-12-08T11:00:16;100895.31;;;14.83;52.09
56082;BME280;41957;52.060;5.138;2022-12-08T11:03:18;100893.63;;;14.80;52.58
56082;BME280;41957;52.060;5.138;2022-12-08T11:05:46;100888.44;;;14.77;52.27
56082;BME280;41957;52.060;5.138;2022-12-08T11:08:14;100898.09;;;14.78;52.41
56082;BME280;41957;52.060;5.138;2022-12-08T11:10:44;100890.97;;;14.80;52.30
56082;BME280;41957;52.060;5.138;2022-12-08T11:13:21;100891.03;;;14.79;52.73
56082;BME280;41957;52.060;5.138;2022-12-08T11:15:48;100898.41;;;14.69;53.11
56082;BME280;41957;52.060;5.138;2022-12-08T11:18:27;100890.78;;;14.86;52.88
56082;BME280;41957;52.060;5.138;2022-12-08T11:21:05;100898.47;;;15.19;51.98
56082;BME280;41957;52.060;5.138;2022-12-08T11:23:34;100876.88;;;15.78;50.72
56082;BME280;41957;52.060;5.138;2022-12-08T11:26:04;100869.09;;;16.41;49.72
56082;BME280;41957;52.060;5.138;2022-12-08T11:28:31;100867.50;;;17.00;48.45
56082;BME280;41957;52.060;5.138;2022-12-08T11:31:03;100860.38;;;17.60;46.89
56082;BME280;41957;52.060;5.138;2022-12-08T11:33:31;100844.66;;;18.13;45.48
56082;BME280;41957;52.060;5.138;2022-12-08T11:36:04;100841.81;;;18.52;44.94
56082;BME280;41957;52.060;5.138;2022-12-08T11:38:32;100823.59;;;18.79;44.35
56082;BME280;41957;52.060;5.138;2022-12-08T11:41:11;100811.50;;;19.07;43.87
56082;BME280;41957;52.060;5.138;2022-12-08T11:46:16;100806.25;;;19.05;44.26
56082;BME280;41957;52.060;5.138;2022-12-08T11:51:23;100825.06;;;18.67;45.20
56082;BME280;41957;52.060;5.138;2022-12-08T11:54:25;100821.22;;;18.55;45.76
56082;BME280;41957;52.060;5.138;2022-12-08T11:57:01;100817.31;;;18.45;46.29
56082;BME280;41957;52.060;5.138;2022-12-08T11:59:29;100806.47;;;18.31;46.34
56082;BME280;41957;52.060;5.138;2022-12-08T12:01:58;100807.03;;;18.20;46.54
56082;BME280;41957;52.060;5.138;2022-12-08T12:04:26;100799.16;;;18.00;46.77
56082;BME280;41957;52.060;5.138;2022-12-08T12:18:30;100789.75;;;17.17;48.62
56082;BME280;41957;52.060;5.138;2022-12-08T12:26:07;100787.72;;;16.62;50.26
56082;BME280;41957;52.060;5.138;2022-12-08T12:28:46;100785.00;;;16.43;50.46
56082;BME280;41957;52.060;5.138;2022-12-08T12:31:20;100777.38;;;16.34;50.39
56082;BME280;41957;52.060;5.138;2022-12-08T12:33:46;100782.19;;;16.26;50.77
56082;BME280;41957;52.060;5.138;2022-12-08T12:36:13;100785.09;;;16.20;50.83
56082;BME280;41957;52.060;5.138;2022-12-08T12:38:47;100789.84;;;16.12;51.24
56082;BME280;41957;52.060;5.138;2022-12-08T12:41:28;100789.34;;;16.02;51.44
56082;BME280;41957;52.060;5.138;2022-12-08T12:57:22;100785.28;;;15.71;52.68
56082;BME280;41957;52.060;5.138;2022-12-08T13:02:25;100780.22;;;15.64;53.41
56082;BME280;41957;52.060;5.138;2022-12-08T13:12:40;100767.41;;;15.98;52.04
56082;BME280;41957;52.060;5.138;2022-12-08T13:15:16;100771.84;;;15.98;52.23
56082;BME280;41957;52.060;5.138;2022-12-08T13:17:44;100765.75;;;15.96;52.34
56082;BME280;41957;52.060;5.138;2022-12-08T13:20:20;100761.53;;;15.90;52.13
56082;BME280;41957;52.060;5.138;2022-12-08T13:28:29;100752.69;;;16.12;51.87
56082;BME280;41957;52.060;5.138;2022-12-08T13:31:01;100750.75;;;16.37;51.41
56082;BME280;41957;52.060;5.138;2022-12-08T13:33:29;100745.78;;;16.50;51.21
56082;BME280;41957;52.060;5.138;2022-12-08T13:38:47;100754.16;;;16.82;50.43
56082;BME280;41957;52.060;5.138;2022-12-08T13:41:20;100752.44;;;16.81;49.78
56082;BME280;41957;52.060;5.138;2022-12-08T13:43:54;100765.63;;;16.82;50.44
56082;BME280;41957;52.060;5.138;2022-12-08T13:46:44;100753.84;;;16.67;50.32
56082;BME280;41957;52.060;5.138;2022-12-08T13:49:16;100751.50;;;16.82;50.47
56082;BME280;41957;52.060;5.138;2022-12-08T13:51:44;100753.16;;;16.84;50.46
56082;BME280;41957;52.060;5.138;2022-12-08T13:54:26;100756.38;;;16.91;49.75
56082;BME280;41957;52.060;5.138;2022-12-08T13:56:55;100753.88;;;16.88;50.08
56082;BME280;41957;52.060;5.138;2022-12-08T13:59:25;100753.44;;;16.97;50.03
56082;BME280;41957;52.060;5.138;2022-12-08T14:01:57;100755.16;;;16.98;49.75
56082;BME280;41957;52.060;5.138;2022-12-08T14:04:24;100750.66;;;17.00;49.95
56082;BME280;41957;52.060;5.138;2022-12-08T14:06:55;100755.38;;;16.93;50.12
56082;BME280;41957;52.060;5.138;2022-12-08T14:09:24;100750.94;;;16.94;49.67
56082;BME280;41957;52.060;5.138;2022-12-08T14:11:56;100749.75;;;17.01;49.41
56082;BME280;41957;52.060;5.138;2022-12-08T14:14:26;100741.84;;;17.00;49.71
56082;BME280;41957;52.060;5.138;2022-12-08T14:17:04;100742.25;;;16.90;49.50
56082;BME280;41957;52.060;5.138;2022-12-08T14:19:33;100742.31;;;16.89;49.98
56082;BME280;41957;52.060;5.138;2022-12-08T14:22:14;100745.34;;;17.00;49.62
56082;BME280;41957;52.060;5.138;2022-12-08T14:24:44;100749.84;;;16.98;49.31
56082;BME280;41957;52.060;5.138;2022-12-08T14:27:13;100759.03;;;16.91;49.63
56082;BME280;41957;52.060;5.138;2022-12-08T14:29:52;100755.66;;;16.87;49.30
56082;BME280;41957;52.060;5.138;2022-12-08T14:34:53;100753.28;;;16.81;49.78
56082;BME280;41957;52.060;5.138;2022-12-08T14:37:19;100740.31;;;16.73;50.10
56082;BME280;41957;52.060;5.138;2022-12-08T14:39:45;100749.81;;;16.79;50.13